sensor_id;sensor_type;location;lat;lon;timestamp;pressure;altitude;pressure_sealevel;temperature;humidity
71956;BME280;59829;50.562;6.258;2022-08-21T00:04:50;95959.25;;;17.56;56.99
71956;BME280;59829;50.562;6.258;2022-08-21T00:14:51;95949.19;;;17.44;57.13
71956;BME280;59829;50.562;6.258;2022-08-21T00:24:51;95946.03;;;17.00;57.58
71956;BME280;59829;50.562;6.258;2022-08-21T00:34:52;95938.81;;;17.20;56.96
71956;BME280;59829;50.562;6.258;2022-08-21T00:44:53;95941.69;;;17.09;56.66
71956;BME280;59829;50.562;6.258;2022-08-21T00:54:54;95929.72;;;16.57;57.38
71956;BME280;59829;50.562;6.258;2022-08-21T01:04:55;95919.81;;;16.87;56.90
71956;BME280;59829;50.562;6.258;2022-08-21T01:14:55;95927.13;;;16.66;56.65
71956;BME280;59829;50.562;6.258;2022-08-21T01:24:56;95933.34;;;16.73;56.77
71956;BME280;59829;50.562;6.258;2022-08-21T01:34:56;95915.41;;;16.71;56.54
71956;BME280;59829;50.562;6.258;2022-08-21T01:44:57;95926.16;;;16.58;57.40
71956;BME280;59829;50.562;6.258;2022-08-21T01:54:57;95910.63;;;16.50;56.92
71956;BME280;59829;50.562;6.258;2022-08-21T02:04:57;95905.63;;;16.49;56.88
71956;BME280;59829;50.562;6.258;2022-08-21T02:14:58;95912.44;;;16.24;56.76
71956;BME280;59829;50.562;6.258;2022-08-21T02:24:58;95903.03;;;16.15;57.43
71956;BME280;59829;50.562;6.258;2022-08-21T02:34:59;95906.06;;;16.10;57.40
71956;BME280;59829;50.562;6.258;2022-08-21T02:44:59;95909.50;;;16.19;56.75
71956;BME280;59829;50.562;6.258;2022-08-21T02:55:00;95912.41;;;16.16;57.04
71956;BME280;59829;50.562;6.258;2022-08-21T03:05:01;95895.84;;;16.01;57.12
71956;BME280;59829;50.562;6.258;2022-08-21T03:15:10;95899.63;;;15.80;57.02
71956;BME280;59829;50.562;6.258;2022-08-21T03:25:10;95882.09;;;15.66;57.73
71956;BME280;59829;50.562;6.258;2022-08-21T03:35:11;95889.06;;;15.56;57.60
71956;BME280;59829;50.562;6.258;2022-08-21T03:45:12;95892.19;;;15.59;57.76
71956;BME280;59829;50.562;6.258;2022-08-21T03:55:13;95888.22;;;15.47;57.30
71956;BME280;59829;50.562;6.258;2022-08-21T04:05:15;95901.34;;;15.36;58.35
71956;BME280;59829;50.562;6.258;2022-08-21T04:15:27;95910.81;;;15.27;57.21
71956;BME280;59829;50.562;6.258;2022-08-21T04:25:27;95913.16;;;15.38;57.22
71956;BME280;59829;50.562;6.258;2022-08-21T04:35:28;95919.88;;;15.31;57.28
71956;BME280;59829;50.562;6.258;2022-08-21T04:45:37;95927.25;;;15.62;56.46
71956;BME280;59829;50.562;6.258;2022-08-21T04:55:38;95918.25;;;15.13;57.13
71956;BME280;59829;50.562;6.258;2022-08-21T05:05:39;95907.63;;;15.16;58.33
71956;BME280;59829;50.562;6.258;2022-08-21T12:05:04;95795.66;;;29.49;31.11
71956;BME280;59829;50.562;6.258;2022-08-21T12:15:24;95789.72;;;26.88;34.99
71956;BME280;59829;50.562;6.258;2022-08-21T12:25:38;95789.41;;;25.81;38.44
71956;BME280;59829;50.562;6.258;2022-08-21T12:35:44;95795.44;;;25.38;38.22
71956;BME280;59829;50.562;6.258;2022-08-21T12:46:12;95797.28;;;25.56;39.32
71956;BME280;59829;50.562;6.258;2022-08-21T12:56:23;95794.47;;;25.08;39.20
71956;BME280;59829;50.562;6.258;2022-08-21T13:06:54;95784.81;;;24.70;38.98
71956;BME280;59829;50.562;6.258;2022-08-21T13:28:45;95777.06;;;25.38;42.05
71956;BME280;59829;50.562;6.258;2022-08-21T13:39:05;95778.63;;;24.89;39.58
71956;BME280;59829;50.562;6.258;2022-08-21T13:49:47;95782.50;;;24.80;40.82
71956;BME280;59829;50.562;6.258;2022-08-21T14:00:34;95787.06;;;24.60;40.17
71956;BME280;59829;50.562;6.258;2022-08-21T14:10:55;95780.22;;;24.14;42.07
71956;BME280;59829;50.562;6.258;2022-08-21T14:21:33;95779.84;;;24.55;42.25
71956;BME280;59829;50.562;6.258;2022-08-21T14:31:52;95781.13;;;24.40;42.18
71956;BME280;59829;50.562;6.258;2022-08-21T14:41:56;95775.91;;;24.26;42.20
71956;BME280;59829;50.562;6.258;2022-08-21T14:52:03;95781.47;;;23.98;41.01
71956;BME280;59829;50.562;6.258;2022-08-21T15:02:16;95776.84;;;23.94;41.41
71956;BME280;59829;50.562;6.258;2022-08-21T15:12:19;95766.59;;;23.99;42.68
71956;BME280;59829;50.562;6.258;2022-08-21T15:22:40;95768.66;;;23.70;42.60
71956;BME280;59829;50.562;6.258;2022-08-21T15:32:43;95776.53;;;23.44;43.90
71956;BME280;59829;50.562;6.258;2022-08-21T15:42:46;95769.28;;;23.39;46.49
71956;BME280;59829;50.562;6.258;2022-08-21T15:53:02;95774.72;;;23.38;44.10
71956;BME280;59829;50.562;6.258;2022-08-21T16:03:08;95777.75;;;23.15;45.43
71956;BME280;59829;50.562;6.258;2022-08-21T16:13:26;95783.78;;;23.29;45.61
71956;BME280;59829;50.562;6.258;2022-08-21T16:23:27;95782.94;;;22.89;45.67
71956;BME280;59829;50.562;6.258;2022-08-21T16:33:42;95768.69;;;22.91;45.28
71956;BME280;59829;50.562;6.258;2022-08-21T16:43:49;95779.13;;;23.04;46.16
71956;BME280;59829;50.562;6.258;2022-08-21T16:54:07;95780.53;;;22.87;46.60
71956;BME280;59829;50.562;6.258;2022-08-21T17:04:19;95775.31;;;22.87;47.08
71956;BME280;59829;50.562;6.258;2022-08-21T17:14:24;95790.88;;;22.47;47.72
71956;BME280;59829;50.562;6.258;2022-08-21T17:24:25;95788.78;;;22.23;47.94
71956;BME280;59829;50.562;6.258;2022-08-21T17:34:25;95797.63;;;22.29;48.19
71956;BME280;59829;50.562;6.258;2022-08-21T17:44:26;95782.31;;;22.19;47.73
71956;BME280;59829;50.562;6.258;2022-08-21T17:54:26;95767.66;;;22.11;48.40
71956;BME280;59829;50.562;6.258;2022-08-21T18:04:28;95790.00;;;22.34;48.35
71956;BME280;59829;50.562;6.258;2022-08-21T18:14:33;95783.97;;;22.33;47.22
71956;BME280;59829;50.562;6.258;2022-08-21T18:24:35;95786.19;;;21.88;48.56
71956;BME280;59829;50.562;6.258;2022-08-21T18:34:38;95788.41;;;22.33;48.62
71956;BME280;59829;50.562;6.258;2022-08-21T18:44:43;95787.97;;;22.22;48.54
71956;BME280;59829;50.562;6.258;2022-08-21T18:54:44;95807.25;;;21.59;49.81
71956;BME280;59829;50.562;6.258;2022-08-21T19:04:44;95802.56;;;21.48;51.07
71956;BME280;59829;50.562;6.258;2022-08-21T19:14:46;95816.53;;;21.68;51.09
71956;BME280;59829;50.562;6.258;2022-08-21T19:24:46;95817.16;;;21.42;52.55
71956;BME280;59829;50.562;6.258;2022-08-21T19:34:46;95816.06;;;21.30;51.99
71956;BME280;59829;50.562;6.258;2022-08-21T19:44:48;95819.69;;;21.14;52.64
71956;BME280;59829;50.562;6.258;2022-08-21T19:54:49;95820.22;;;21.03;54.00
71956;BME280;59829;50.562;6.258;2022-08-21T20:04:49;95820.72;;;20.92;53.31
71956;BME280;59829;50.562;6.258;2022-08-21T20:14:50;95817.50;;;20.90;53.22
71956;BME280;59829;50.562;6.258;2022-08-21T20:24:51;95817.34;;;20.76;53.24
71956;BME280;59829;50.562;6.258;2022-08-21T20:34:51;95811.94;;;20.78;54.30
71956;BME280;59829;50.562;6.258;2022-08-21T20:44:52;95809.28;;;20.71;53.61
71956;BME280;59829;50.562;6.258;2022-08-21T20:54:58;95810.66;;;20.89;53.20
71956;BME280;59829;50.562;6.258;2022-08-21T21:05:23;95813.59;;;20.64;54.52
71956;BME280;59829;50.562;6.258;2022-08-21T21:15:29;95802.41;;;20.64;55.89
71956;BME280;59829;50.562;6.258;2022-08-21T21:25:39;95795.56;;;20.63;56.71
71956;BME280;59829;50.562;6.258;2022-08-21T21:35:48;95810.97;;;20.43;56.86
71956;BME280;59829;50.562;6.258;2022-08-21T21:46:46;95806.50;;;20.37;56.50
71956;BME280;59829;50.562;6.258;2022-08-21T21:56:30;95808.31;;;20.22;56.80
71956;BME280;59829;50.562;6.258;2022-08-21T22:06:43;95821.88;;;19.35;58.86
71956;BME280;59829;50.562;6.258;2022-08-21T22:16:49;95828.84;;;19.87;57.23
71956;BME280;59829;50.562;6.258;2022-08-21T22:26:53;95828.41;;;19.98;57.72
71956;BME280;59829;50.562;6.258;2022-08-21T22:37:01;95835.75;;;19.42;59.92
71956;BME280;59829;50.562;6.258;2022-08-21T22:47:02;95826.16;;;19.28;59.12
71956;BME280;59829;50.562;6.258;2022-08-21T22:57:08;95829.84;;;19.86;58.75
71956;BME280;59829;50.562;6.258;2022-08-21T23:07:10;95829.56;;;19.43;59.24
71956;BME280;59829;50.562;6.258;2022-08-21T23:17:58;95829.25;;;19.46;58.58
